Time;durP1;ratioP1;P1;durP2;ratioP2;P2;SDS_P1;SDS_P2;PMS_P1;PMS_P2;Temp;Humidity;BMP_temperature;BMP_pressure;BME280_temperature;BME280_humidity;BME280_pressure;Samples;Min_cycle;Max_cycle;Signal;HPM_P1;HPM_P2
2021/07/19 00:01:54;;;;;;;2.80;2.60;;;24.40;99.90;;;;;;5073583;28;20448;-74
2021/07/19 00:04:21;;;;;;;2.03;1.93;;;24.40;99.90;;;;;;5073385;28;20445;-75
2021/07/19 00:06:48;;;;;;;3.47;2.57;;;24.30;99.90;;;;;;5072647;28;20438;-74
2021/07/19 00:09:16;;;;;;;3.70;2.53;;;24.30;99.90;;;;;;5072947;28;20841;-74
2021/07/19 00:11:45;;;;;;;1.90;1.80;;;24.30;99.90;;;;;;5073277;28;20781;-74
2021/07/19 00:14:12;;;;;;;2.30;2.10;;;24.30;99.90;;;;;;5072953;28;20476;-73
2021/07/19 00:16:39;;;;;;;2.60;2.17;;;24.30;99.90;;;;;;5072349;28;20745;-74
2021/07/19 00:19:05;;;;;;;2.27;2.07;;;24.30;99.90;;;;;;5072730;28;20456;-74
2021/07/19 00:21:32;;;;;;;2.37;2.17;;;24.20;99.90;;;;;;5072950;28;20445;-74
2021/07/19 00:23:59;;;;;;;2.40;2.20;;;24.20;99.90;;;;;;5073117;28;20464;-73
2021/07/19 00:26:26;;;;;;;2.67;2.10;;;24.20;99.90;;;;;;5072643;28;20441;-73
2021/07/19 00:28:54;;;;;;;4.37;2.70;;;24.20;99.90;;;;;;5073032;28;20459;-74
2021/07/19 00:31:21;;;;;;;2.23;2.03;;;24.10;99.90;;;;;;5074243;28;20528;-73
2021/07/19 00:33:48;;;;;;;2.23;2.07;;;24.10;99.90;;;;;;5073803;28;20535;-74
2021/07/19 00:36:14;;;;;;;2.80;2.20;;;24.10;99.90;;;;;;5073744;28;20448;-74
2021/07/19 00:38:41;;;;;;;1.70;1.60;;;24.10;99.90;;;;;;5073773;28;20448;-74
2021/07/19 00:41:08;;;;;;;3.60;2.20;;;24.10;99.90;;;;;;5073141;28;20480;-73
2021/07/19 00:43:35;;;;;;;1.80;1.70;;;24.00;99.90;;;;;;5073169;28;20481;-74
2021/07/19 00:46:03;;;;;;;2.60;2.40;;;24.00;99.90;;;;;;5073300;28;20934;-73
2021/07/19 00:48:30;;;;;;;2.20;2.00;;;24.00;99.90;;;;;;5073736;28;20441;-74
2021/07/19 00:50:56;;;;;;;5.10;1.77;;;24.00;99.90;;;;;;5074228;28;20437;-74
2021/07/19 00:53:23;;;;;;;3.10;2.70;;;23.90;99.90;;;;;;5073692;28;20452;-74
2021/07/19 00:55:51;;;;;;;2.53;2.33;;;23.90;99.90;;;;;;5072951;28;20465;-75
2021/07/19 00:58:19;;;;;;;2.53;2.33;;;23.90;99.90;;;;;;5073626;28;20925;-74
2021/07/19 01:00:50;;;;;;;2.93;2.53;;;23.90;99.90;;;;;;5073517;28;20457;-74
2021/07/19 01:03:18;;;;;;;2.20;2.00;;;23.90;99.90;;;;;;5070581;28;20936;-74
2021/07/19 01:05:46;;;;;;;2.07;1.80;;;23.80;99.90;;;;;;5072550;28;20927;-74
2021/07/19 01:08:13;;;;;;;3.60;3.30;;;23.80;99.90;;;;;;5071790;28;20440;-74
2021/07/19 01:10:41;;;;;;;2.70;1.93;;;23.80;99.90;;;;;;5072237;28;20448;-76
2021/07/19 01:13:08;;;;;;;3.43;2.23;;;23.80;99.90;;;;;;5071629;28;20761;-75
2021/07/19 01:15:37;;;;;;;2.33;2.13;;;23.80;99.90;;;;;;5072095;28;20473;-74
2021/07/19 01:18:05;;;;;;;2.20;2.10;;;23.70;99.90;;;;;;5071936;28;20453;-75
2021/07/19 01:20:37;;;;;;;2.33;2.00;;;23.70;99.90;;;;;;5072315;28;20445;-75
2021/07/19 01:23:30;;;;;;;2.97;2.67;;;23.70;99.90;;;;;;5071298;28;20453;-75
2021/07/19 01:26:10;;;;;;;2.70;2.30;;;23.70;99.90;;;;;;5071416;28;20453;-74
2021/07/19 01:28:41;;;;;;;3.10;2.80;;;23.70;99.90;;;;;;5071854;28;20445;-75
2021/07/19 01:31:12;;;;;;;3.70;2.20;;;23.60;99.90;;;;;;5071541;28;20515;-74
2021/07/19 01:33:43;;;;;;;2.67;2.27;;;23.60;99.90;;;;;;5071988;28;20456;-74
2021/07/19 01:36:12;;;;;;;2.33;2.13;;;23.60;99.90;;;;;;5055375;28;20477;-74
2021/07/19 01:38:39;;;;;;;3.70;2.37;;;23.50;99.90;;;;;;5072191;28;20453;-74
2021/07/19 01:41:06;;;;;;;4.13;2.60;;;23.50;99.90;;;;;;5072263;28;20975;-74
2021/07/19 01:43:35;;;;;;;3.10;2.80;;;23.50;99.90;;;;;;5073007;28;20445;-74
2021/07/19 01:46:05;;;;;;;2.53;2.33;;;23.50;99.90;;;;;;5072525;28;20907;-74
2021/07/19 01:48:33;;;;;;;3.13;2.47;;;23.50;99.90;;;;;;5073055;28;20445;-74
2021/07/19 01:51:01;;;;;;;3.10;2.60;;;23.40;99.90;;;;;;5072894;28;20452;-76
2021/07/19 01:53:30;;;;;;;3.30;2.10;;;23.40;99.90;;;;;;5073033;28;20452;-74
2021/07/19 01:55:58;;;;;;;3.00;2.00;;;23.40;99.90;;;;;;5072380;28;20469;-74
2021/07/19 01:58:25;;;;;;;3.17;2.70;;;23.40;99.90;;;;;;5072723;28;20441;-74
2021/07/19 02:00:51;;;;;;;2.70;2.50;;;23.40;99.90;;;;;;5072416;28;20457;-74
2021/07/19 02:03:20;;;;;;;2.70;2.50;;;23.40;99.90;;;;;;5072328;28;20449;-74
2021/07/19 02:05:49;;;;;;;2.10;1.90;;;23.30;99.90;;;;;;5070486;28;20785;-74
2021/07/19 02:08:17;;;;;;;5.23;3.20;;;23.30;99.90;;;;;;5067514;28;20449;-74
2021/07/19 02:10:47;;;;;;;3.33;2.87;;;23.30;99.90;;;;;;5069746;28;20922;-74
2021/07/19 02:13:14;;;;;;;3.80;2.80;;;23.30;99.90;;;;;;5070255;28;20449;-74
2021/07/19 02:15:42;;;;;;;2.90;2.70;;;23.30;99.90;;;;;;5071025;28;20476;-73
2021/07/19 02:18:11;;;;;;;2.87;2.57;;;23.20;99.90;;;;;;5071359;28;20449;-74
2021/07/19 02:20:41;;;;;;;2.57;2.37;;;23.20;99.90;;;;;;5071854;28;20488;-74
2021/07/19 02:23:08;;;;;;;3.00;2.50;;;23.20;99.90;;;;;;5071241;28;20453;-73
2021/07/19 02:25:36;;;;;;;2.57;2.37;;;23.20;99.90;;;;;;5073810;28;20441;-73
2021/07/19 02:28:04;;;;;;;4.07;2.40;;;23.20;99.90;;;;;;5075090;28;20847;-73
2021/07/19 02:30:31;;;;;;;3.53;2.87;;;23.10;99.90;;;;;;5073609;28;20461;-74
2021/07/19 02:33:00;;;;;;;2.50;2.30;;;23.10;99.90;;;;;;5073068;28;20457;-74
2021/07/19 02:35:28;;;;;;;3.40;3.10;;;23.10;99.90;;;;;;5072941;28;20469;-73
2021/07/19 02:37:58;;;;;;;3.63;2.57;;;23.10;99.90;;;;;;5072450;28;20441;-73
2021/07/19 02:40:27;;;;;;;2.93;2.63;;;23.10;99.90;;;;;;5066818;28;20461;-74
2021/07/19 02:42:57;;;;;;;3.37;3.07;;;23.00;99.90;;;;;;5073669;28;20667;-73
2021/07/19 02:45:27;;;;;;;3.57;3.10;;;23.00;99.90;;;;;;5072963;28;20436;-74
2021/07/19 02:47:55;;;;;;;2.90;2.70;;;23.00;99.90;;;;;;5073175;28;20448;-73
2021/07/19 02:50:25;;;;;;;3.03;2.50;;;23.00;99.90;;;;;;5073074;28;20916;-72
2021/07/19 02:52:54;;;;;;;3.73;3.30;;;23.00;99.90;;;;;;5074297;28;20472;-73
2021/07/19 02:55:22;;;;;;;4.50;2.90;;;22.90;99.90;;;;;;5072434;28;20472;-72
2021/07/19 02:57:49;;;;;;;4.37;2.90;;;22.90;99.90;;;;;;5072883;28;20452;-72
2021/07/19 03:00:18;;;;;;;3.47;3.17;;;22.90;99.90;;;;;;5073192;28;20441;-73
2021/07/19 03:02:49;;;;;;;2.73;2.53;;;22.90;99.90;;;;;;5070046;28;20457;-73
2021/07/19 03:05:20;;;;;;;3.63;3.13;;;22.90;99.90;;;;;;5072324;28;20563;-73
2021/07/19 03:07:52;;;;;;;3.83;3.47;;;22.90;99.90;;;;;;5070013;28;20453;-73
2021/07/19 03:10:23;;;;;;;3.30;2.65;;;22.80;99.90;;;;;;5073620;28;20436;-72
2021/07/19 03:12:54;;;;;;;4.50;3.70;;;22.80;99.90;;;;;;5074289;28;20194;-73
2021/07/19 03:15:23;;;;;;;3.13;2.83;;;22.80;99.90;;;;;;5074475;28;20476;-72
2021/07/19 03:17:51;;;;;;;3.50;2.50;;;22.70;99.90;;;;;;5074667;28;20449;-73
2021/07/19 03:20:19;;;;;;;4.20;3.33;;;22.80;99.90;;;;;;5073977;28;20445;-72
2021/07/19 03:22:48;;;;;;;4.33;2.90;;;22.70;99.90;;;;;;5074459;28;20441;-73
2021/07/19 03:25:17;;;;;;;6.17;3.13;;;22.70;99.90;;;;;;5074266;28;20452;-73
2021/07/19 03:27:45;;;;;;;3.73;3.20;;;22.70;99.90;;;;;;5074321;28;20452;-73
2021/07/19 03:30:13;;;;;;;3.30;3.00;;;22.70;99.90;;;;;;5074172;28;20452;-73
2021/07/19 03:32:41;;;;;;;3.40;3.10;;;22.60;99.90;;;;;;5075771;28;20468;-73
2021/07/19 03:35:09;;;;;;;3.37;2.83;;;22.70;99.90;;;;;;5074830;28;20472;-73
2021/07/19 03:37:37;;;;;;;3.47;3.17;;;22.60;99.90;;;;;;5074585;28;20448;-73
2021/07/19 03:40:04;;;;;;;4.10;3.70;;;22.60;99.90;;;;;;5065519;28;20908;-73
2021/07/19 03:42:31;;;;;;;11.80;4.07;;;22.60;99.90;;;;;;5074910;28;20473;-73
2021/07/19 03:45:00;;;;;;;4.47;4.07;;;22.60;99.90;;;;;;5074987;28;20931;-73
2021/07/19 03:47:27;;;;;;;4.13;3.73;;;22.60;99.90;;;;;;5074279;28;20457;-73
2021/07/19 03:49:56;;;;;;;3.93;3.53;;;22.60;99.90;;;;;;5074866;28;20452;-73
2021/07/19 03:52:23;;;;;;;3.60;3.10;;;22.50;99.90;;;;;;5075423;28;20452;-74
2021/07/19 03:54:50;;;;;;;3.77;3.47;;;22.50;99.90;;;;;;5074574;28;20453;-74
2021/07/19 03:57:17;;;;;;;4.82;3.72;;;22.50;99.90;;;;;;5074954;28;20978;-73
2021/07/19 03:59:47;;;;;;;3.17;2.97;;;22.50;99.90;;;;;;5074845;28;20637;-73
2021/07/19 04:02:16;;;;;;;5.30;3.20;;;22.50;99.90;;;;;;5075057;28;20514;-73
2021/07/19 04:04:50;;;;;;;3.80;3.50;;;22.50;99.90;;;;;;5074447;28;20457;-74
2021/07/19 04:07:18;;;;;;;3.92;3.30;;;22.50;99.90;;;;;;5073171;28;20456;-73
2021/07/19 04:09:45;;;;;;;3.67;3.38;;;22.40;99.90;;;;;;5069492;28;20220;-74
2021/07/19 04:12:14;;;;;;;3.42;3.13;;;22.40;99.90;;;;;;5073606;28;20195;-74
2021/07/19 04:14:41;;;;;;;9.43;3.73;;;22.40;99.90;;;;;;5073539;28;20199;-74
2021/07/19 04:17:10;;;;;;;3.90;3.37;;;22.40;99.90;;;;;;5071059;28;20800;-74
2021/07/19 04:19:38;;;;;;;3.30;3.00;;;22.40;99.90;;;;;;5068888;28;20444;-74
2021/07/19 04:22:05;;;;;;;4.00;3.57;;;22.40;99.90;;;;;;5070179;28;20445;-74
2021/07/19 04:24:34;;;;;;;3.47;3.17;;;22.40;99.90;;;;;;5072698;28;20445;-74
2021/07/19 04:27:01;;;;;;;3.80;3.50;;;22.40;99.90;;;;;;5073289;28;20441;-74
2021/07/19 04:29:27;;;;;;;5.75;4.10;;;22.30;99.90;;;;;;5073024;28;20448;-73
2021/07/19 04:31:55;;;;;;;3.77;3.27;;;22.30;99.90;;;;;;5072863;28;20202;-74
2021/07/19 04:34:30;;;;;;;4.65;4.22;;;22.30;99.90;;;;;;5072655;28;20445;-74
2021/07/19 04:37:02;;;;;;;3.72;3.38;;;22.30;99.90;;;;;;5064494;28;20215;-73
2021/07/19 04:39:29;;;;;;;4.70;4.27;;;22.20;99.90;;;;;;5071683;28;20645;-74
2021/07/19 04:41:56;;;;;;;4.90;3.73;;;22.20;99.90;;;;;;5073482;28;20979;-73
2021/07/19 04:44:23;;;;;;;3.77;3.10;;;22.20;99.90;;;;;;5073730;28;20452;-73
2021/07/19 04:46:51;;;;;;;5.20;4.80;;;22.20;99.90;;;;;;5072511;28;20437;-73
2021/07/19 04:49:18;;;;;;;5.65;4.07;;;22.20;99.90;;;;;;5073436;28;20453;-73
2021/07/19 04:51:46;;;;;;;3.95;3.55;;;22.20;99.90;;;;;;5074385;28;20206;-74
2021/07/19 04:54:20;;;;;;;4.72;3.60;;;22.20;99.90;;;;;;5073621;28;20209;-74
2021/07/19 04:56:48;;;;;;;6.18;4.43;;;22.20;99.90;;;;;;5073286;28;20218;-73
2021/07/19 04:59:17;;;;;;;5.13;3.70;;;22.20;99.90;;;;;;5073537;28;20199;-73
2021/07/19 05:01:46;;;;;;;3.92;3.53;;;22.10;99.90;;;;;;5070004;28;20538;-72
2021/07/19 05:04:15;;;;;;;4.72;4.32;;;22.10;99.90;;;;;;5069913;28;20198;-72
2021/07/19 05:06:44;;;;;;;4.55;3.85;;;22.10;99.90;;;;;;5068017;28;20187;-73
2021/07/19 05:09:12;;;;;;;4.30;3.85;;;22.10;99.90;;;;;;5070790;28;20309;-72
2021/07/19 05:11:42;;;;;;;4.25;3.80;;;22.10;99.90;;;;;;5071007;28;20202;-73
2021/07/19 05:14:09;;;;;;;4.45;3.65;;;22.00;99.90;;;;;;5072524;28;20195;-73
2021/07/19 05:16:37;;;;;;;4.68;3.85;;;22.10;99.90;;;;;;5073689;28;20229;-73
2021/07/19 05:19:04;;;;;;;5.13;4.20;;;22.10;99.90;;;;;;5072968;28;20199;-73
2021/07/19 05:21:34;;;;;;;3.73;3.37;;;22.10;99.90;;;;;;5073001;28;20463;-73
2021/07/19 05:24:00;;;;;;;5.10;3.90;;;22.10;99.90;;;;;;5072691;28;20472;-73
2021/07/19 05:26:27;;;;;;;4.20;3.80;;;22.10;99.90;;;;;;5072895;28;20441;-73
2021/07/19 05:28:56;;;;;;;4.60;4.20;;;22.10;99.90;;;;;;5072477;28;20195;-73
2021/07/19 05:31:23;;;;;;;5.65;4.55;;;22.00;99.90;;;;;;5073277;28;20198;-73
2021/07/19 05:33:50;;;;;;;5.13;3.70;;;22.00;99.90;;;;;;5072942;28;20238;-73
2021/07/19 05:36:17;;;;;;;5.67;4.50;;;22.00;99.90;;;;;;5072834;28;20233;-73
2021/07/19 05:38:44;;;;;;;4.25;3.85;;;22.00;99.90;;;;;;5072379;28;20448;-73
2021/07/19 05:41:11;;;;;;;6.67;4.40;;;22.00;99.90;;;;;;5069349;28;20319;-73
2021/07/19 05:43:38;;;;;;;4.47;4.07;;;22.00;99.90;;;;;;5071946;28;20441;-73
2021/07/19 05:46:06;;;;;;;3.78;3.47;;;22.00;99.90;;;;;;5072416;28;20445;-74
2021/07/19 05:48:33;;;;;;;5.90;5.37;;;22.00;99.90;;;;;;5072651;28;20704;-73
2021/07/19 05:51:01;;;;;;;6.90;4.73;;;22.00;99.90;;;;;;5072198;28;20539;-74
2021/07/19 05:53:28;;;;;;;5.50;4.00;;;22.00;99.90;;;;;;5071872;28;20481;-73
2021/07/19 05:55:55;;;;;;;4.90;4.40;;;22.00;99.90;;;;;;5071797;28;20840;-74
2021/07/19 05:58:22;;;;;;;4.85;4.10;;;21.90;99.90;;;;;;5072012;28;20205;-74
2021/07/19 06:00:48;;;;;;;4.70;4.30;;;21.90;99.90;;;;;;5072863;28;20675;-74
2021/07/19 06:03:17;;;;;;;5.23;4.13;;;21.90;99.90;;;;;;5072457;28;20445;-74
2021/07/19 06:05:44;;;;;;;4.82;4.30;;;21.90;99.90;;;;;;5071904;28;20842;-73
2021/07/19 06:08:10;;;;;;;4.63;4.13;;;21.90;99.90;;;;;;5070945;28;20204;-74
2021/07/19 06:10:37;;;;;;;4.47;3.88;;;21.90;99.90;;;;;;5071155;28;20589;-73
2021/07/19 06:13:04;;;;;;;5.25;4.75;;;21.90;99.90;;;;;;5071175;28;20202;-72
2021/07/19 06:15:31;;;;;;;5.32;4.80;;;21.90;99.90;;;;;;5071096;28;20191;-73
2021/07/19 06:17:58;;;;;;;5.43;3.97;;;21.90;99.90;;;;;;5071266;28;20222;-72
2021/07/19 06:20:28;;;;;;;5.00;4.37;;;21.90;99.90;;;;;;5071446;28;20203;-72
2021/07/19 06:23:00;;;;;;;5.28;4.43;;;21.90;99.90;;;;;;5071133;28;20984;-73
2021/07/19 06:25:28;;;;;;;5.97;4.63;;;21.90;99.90;;;;;;5070904;28;20201;-76
2021/07/19 06:27:55;;;;;;;6.22;4.75;;;21.90;99.90;;;;;;5067291;28;20222;-79
2021/07/19 06:30:22;;;;;;;6.97;4.85;;;21.90;99.90;;;;;;5068128;28;20194;-81
2021/07/19 06:32:49;;;;;;;4.68;4.25;;;21.90;99.90;;;;;;5070023;28;20206;-82
2021/07/19 06:35:16;;;;;;;4.57;4.18;;;21.90;99.90;;;;;;5073229;28;20201;-81
2021/07/19 06:37:44;;;;;;;5.32;4.63;;;21.90;99.90;;;;;;5072628;28;20226;-80
2021/07/19 06:40:11;;;;;;;5.63;4.75;;;21.90;99.90;;;;;;5069579;28;20546;-79
2021/07/19 06:42:38;;;;;;;4.87;4.37;;;21.90;99.90;;;;;;5071127;28;20225;-76
2021/07/19 06:45:06;;;;;;;5.25;4.00;;;21.90;99.90;;;;;;5071407;28;20437;-76
2021/07/19 06:47:33;;;;;;;5.60;5.10;;;21.90;99.90;;;;;;5071864;28;20206;-75
2021/07/19 06:50:00;;;;;;;7.88;4.80;;;21.90;99.90;;;;;;5071799;28;20209;-77
2021/07/19 06:52:27;;;;;;;6.50;4.70;;;21.90;99.90;;;;;;5069283;28;20203;-77
2021/07/19 06:54:55;;;;;;;4.73;4.33;;;21.90;99.90;;;;;;5072385;28;20191;-75
2021/07/19 06:57:22;;;;;;;6.57;4.88;;;21.90;99.90;;;;;;5072143;28;20499;-77
2021/07/19 06:59:49;;;;;;;5.30;4.80;;;21.90;99.90;;;;;;5071340;28;20201;-73
2021/07/19 07:02:16;;;;;;;4.70;4.30;;;21.90;99.90;;;;;;5070396;28;20549;-72
2021/07/19 07:04:43;;;;;;;4.93;4.43;;;21.90;99.90;;;;;;5060774;28;20199;-76
2021/07/19 07:07:10;;;;;;;6.05;5.40;;;21.90;99.90;;;;;;5070973;28;20530;-76
2021/07/19 07:09:36;;;;;;;5.73;5.23;;;21.90;99.90;;;;;;5070992;28;20207;-76
2021/07/19 07:12:05;;;;;;;4.90;4.40;;;21.90;99.90;;;;;;5072701;28;20444;-76
2021/07/19 07:14:32;;;;;;;4.63;4.20;;;21.90;99.90;;;;;;5072426;28;20199;-77
2021/07/19 07:16:59;;;;;;;5.03;4.63;;;21.90;99.90;;;;;;5072398;28;20562;-76
2021/07/19 07:19:26;;;;;;;5.18;4.70;;;21.90;99.90;;;;;;5074011;28;20455;-77
2021/07/19 07:21:53;;;;;;;6.10;5.13;;;21.90;99.90;;;;;;5074740;28;20198;-77
2021/07/19 07:24:20;;;;;;;6.13;5.53;;;21.90;99.90;;;;;;5073813;28;20198;-76
2021/07/19 07:26:47;;;;;;;5.03;4.53;;;21.90;99.90;;;;;;5072861;28;20282;-76
2021/07/19 07:29:15;;;;;;;7.43;5.57;;;21.90;99.90;;;;;;5067201;28;20199;-76
2021/07/19 07:31:42;;;;;;;7.55;4.78;;;21.90;99.90;;;;;;5072094;28;20718;-76
2021/07/19 07:34:08;;;;;;;7.40;6.30;;;21.90;99.90;;;;;;5074764;28;20268;-76
2021/07/19 07:36:35;;;;;;;5.60;5.10;;;22.00;99.90;;;;;;5074814;28;20480;-76
2021/07/19 07:39:03;;;;;;;5.88;5.28;;;22.00;99.90;;;;;;5075437;28;20456;-76
2021/07/19 07:41:31;;;;;;;5.95;4.93;;;22.00;99.90;;;;;;5067292;28;20226;-76
2021/07/19 07:43:58;;;;;;;6.00;5.45;;;22.00;99.90;;;;;;5075409;28;20512;-76
2021/07/19 07:46:26;;;;;;;8.43;5.17;;;22.00;99.90;;;;;;5074835;28;20645;-76
2021/07/19 07:48:54;;;;;;;5.88;4.78;;;22.00;99.90;;;;;;5074388;28;20831;-76
2021/07/19 07:51:21;;;;;;;6.83;5.20;;;22.00;99.90;;;;;;5075408;28;20198;-76
2021/07/19 07:53:48;;;;;;;7.43;5.40;;;22.00;99.90;;;;;;5075185;28;20460;-76
2021/07/19 07:56:15;;;;;;;5.63;5.05;;;22.00;99.90;;;;;;5074955;28;20202;-76
2021/07/19 07:58:42;;;;;;;5.70;5.13;;;22.00;99.90;;;;;;5074156;28;20195;-76
2021/07/19 08:01:08;;;;;;;6.47;5.25;;;22.00;99.90;;;;;;5066404;28;20202;-76
2021/07/19 08:03:37;;;;;;;6.47;4.93;;;22.00;99.90;;;;;;5074511;28;20211;-76
2021/07/19 08:06:03;;;;;;;7.23;5.60;;;22.00;99.90;;;;;;5073550;28;20542;-76
2021/07/19 08:08:30;;;;;;;6.15;4.93;;;22.10;99.90;;;;;;5072872;28;20449;-76
2021/07/19 08:10:57;;;;;;;8.00;5.20;;;22.10;99.90;;;;;;5073586;28;20206;-76
2021/07/19 08:13:23;;;;;;;5.70;5.20;;;22.10;99.90;;;;;;5067741;28;20445;-76
2021/07/19 08:15:50;;;;;;;5.40;4.50;;;22.10;99.90;;;;;;5071668;28;20456;-76
2021/07/19 08:18:17;;;;;;;6.88;5.90;;;22.10;99.90;;;;;;5073521;28;20480;-76
2021/07/19 08:20:47;;;;;;;6.10;4.97;;;22.10;99.90;;;;;;5072682;28;20205;-76
2021/07/19 08:23:14;;;;;;;11.43;5.87;;;22.10;99.90;;;;;;5072801;28;20202;-81
2021/07/19 08:25:41;;;;;;;6.93;6.18;;;22.10;99.90;;;;;;5068039;28;20449;-76
2021/07/19 08:28:08;;;;;;;10.93;5.57;;;22.10;99.90;;;;;;5071170;28;20191;-74
2021/07/19 08:30:35;;;;;;;6.43;4.87;;;22.10;99.90;;;;;;5069858;28;20452;-75
2021/07/19 08:33:02;;;;;;;5.10;4.60;;;22.10;99.90;;;;;;5071765;28;20453;-76
2021/07/19 08:35:29;;;;;;;5.37;4.87;;;22.10;99.90;;;;;;5066361;28;20202;-74
2021/07/19 08:37:58;;;;;;;7.27;5.47;;;22.10;99.90;;;;;;5065513;28;20517;-76
2021/07/19 08:40:25;;;;;;;7.70;5.20;;;22.10;99.90;;;;;;5063435;28;20930;-74
2021/07/19 08:42:53;;;;;;;7.13;4.77;;;22.10;99.90;;;;;;5070997;28;20481;-73
2021/07/19 08:45:20;;;;;;;5.55;5.03;;;22.10;99.90;;;;;;5072835;28;20506;-74
2021/07/19 08:47:48;;;;;;;7.15;6.20;;;22.10;99.90;;;;;;5073377;28;20630;-78
2021/07/19 08:50:17;;;;;;;6.07;5.00;;;22.10;99.90;;;;;;5073084;28;20644;-76
2021/07/19 08:52:48;;;;;;;6.35;5.22;;;22.20;99.90;;;;;;5072703;28;20719;-76
2021/07/19 08:55:17;;;;;;;5.40;4.27;;;22.20;99.90;;;;;;5072983;28;20235;-75
2021/07/19 08:57:46;;;;;;;7.17;5.47;;;22.20;99.90;;;;;;5073187;28;20468;-76
2021/07/19 09:00:14;;;;;;;6.00;5.17;;;22.30;99.90;;;;;;5068110;28;20481;-74
2021/07/19 09:02:40;;;;;;;7.22;5.70;;;22.30;99.90;;;;;;5071359;28;20453;-76
2021/07/19 09:05:08;;;;;;;10.57;5.97;;;22.30;99.90;;;;;;5065355;28;20213;-76
2021/07/19 09:07:34;;;;;;;7.30;5.80;;;22.40;99.90;;;;;;5072348;28;20448;-75
2021/07/19 09:10:01;;;;;;;6.37;4.57;;;22.40;99.90;;;;;;5072376;28;20448;-74
2021/07/19 09:12:34;;;;;;;6.93;5.20;;;22.40;99.90;;;;;;5072829;28;20456;-73
2021/07/19 09:15:01;;;;;;;7.50;5.23;;;22.40;99.90;;;;;;5067178;28;20449;-73
2021/07/19 09:17:29;;;;;;;5.43;4.83;;;22.50;99.90;;;;;;5056864;28;20481;-81
2021/07/19 09:19:58;;;;;;;8.00;5.50;;;22.50;99.90;;;;;;5072524;28;20876;-73
2021/07/19 09:22:26;;;;;;;5.87;5.20;;;22.50;99.90;;;;;;5069275;28;20740;-73
2021/07/19 09:25:04;;;;;;;11.13;7.40;;;22.50;99.90;;;;;;5072305;28;20456;-73
2021/07/19 09:27:32;;;;;;;6.70;5.90;;;22.50;99.90;;;;;;5071852;28;20803;-75
2021/07/19 09:29:59;;;;;;;6.23;4.67;;;22.50;99.90;;;;;;5072227;28;20780;-72
2021/07/19 09:32:26;;;;;;;6.83;4.83;;;22.50;99.90;;;;;;5071923;28;20437;-72
2021/07/19 09:34:53;;;;;;;7.97;5.70;;;22.60;99.90;;;;;;5072333;28;20476;-75
2021/07/19 09:37:19;;;;;;;6.87;6.27;;;22.60;99.90;;;;;;5070578;28;20488;-75
2021/07/19 09:39:49;;;;;;;7.33;5.70;;;22.60;99.90;;;;;;5071847;28;20808;-77
2021/07/19 09:42:18;;;;;;;6.33;5.67;;;22.60;99.90;;;;;;5071784;28;20484;-75
2021/07/19 09:44:52;;;;;;;6.40;5.10;;;22.70;99.90;;;;;;5071815;28;20460;-76
2021/07/19 09:47:19;;;;;;;7.70;5.47;;;22.70;99.90;;;;;;5071747;28;20456;-76
2021/07/19 09:49:46;;;;;;;5.50;4.60;;;22.70;99.90;;;;;;5072199;28;20452;-75
2021/07/19 09:52:14;;;;;;;4.53;4.13;;;22.80;99.90;;;;;;5072465;28;20452;-78
2021/07/19 09:54:44;;;;;;;5.83;5.27;;;22.80;99.90;;;;;;5073157;28;20448;-76
2021/07/19 09:57:12;;;;;;;6.13;4.63;;;22.80;99.90;;;;;;5072837;28;20469;-76
2021/07/19 09:59:49;;;;;;;5.50;5.00;;;22.80;99.90;;;;;;5071821;28;20453;-75
2021/07/19 10:02:30;;;;;;;9.10;6.60;;;22.80;99.90;;;;;;5072518;28;20429;-79
2021/07/19 10:04:57;;;;;;;15.13;8.07;;;22.60;99.90;;;;;;5067740;28;20457;-76
2021/07/19 10:07:24;;;;;;;8.90;6.73;;;22.40;99.90;;;;;;5072590;28;20440;-76
2021/07/19 10:09:55;;;;;;;8.80;6.57;;;22.40;99.90;;;;;;5071791;28;20437;-75
2021/07/19 10:12:22;;;;;;;9.03;6.03;;;22.50;99.90;;;;;;5072291;28;20433;-76
2021/07/19 10:14:49;;;;;;;9.50;6.40;;;22.50;99.90;;;;;;5071645;28;20449;-76
2021/07/19 10:17:16;;;;;;;8.80;6.90;;;22.60;99.90;;;;;;5071657;28;20538;-76
2021/07/19 10:19:45;;;;;;;14.90;7.40;;;22.70;99.90;;;;;;5071942;28;20450;-76
2021/07/19 10:22:14;;;;;;;7.00;6.30;;;22.80;99.90;;;;;;5071980;28;20441;-76
2021/07/19 10:24:42;;;;;;;7.53;6.17;;;22.80;99.90;;;;;;5069622;28;20939;-77
2021/07/19 10:27:13;;;;;;;7.87;6.53;;;22.80;99.90;;;;;;5071971;28;20448;-78
2021/07/19 10:29:40;;;;;;;6.70;6.10;;;22.90;99.90;;;;;;5071870;28;20526;-76
2021/07/19 10:32:08;;;;;;;6.20;5.60;;;22.90;99.90;;;;;;5071519;28;20445;-75
2021/07/19 10:34:34;;;;;;;5.90;5.40;;;22.90;99.90;;;;;;5071542;28;20449;-78
2021/07/19 10:37:09;;;;;;;8.40;6.63;;;22.90;99.90;;;;;;5071621;28;20441;-77
2021/07/19 10:39:37;;;;;;;7.30;6.00;;;22.90;99.90;;;;;;5070496;28;20448;-76
2021/07/19 10:42:07;;;;;;;7.90;6.60;;;23.00;99.90;;;;;;5070631;28;20971;-76
2021/07/19 10:44:36;;;;;;;8.30;6.60;;;23.00;99.90;;;;;;5071642;28;20483;-76
2021/07/19 10:47:14;;;;;;;8.07;6.40;;;23.00;99.90;;;;;;5075275;28;20475;-76
2021/07/19 10:49:43;;;;;;;6.97;6.33;;;23.00;99.90;;;;;;5075075;28;20842;-75
2021/07/19 10:52:14;;;;;;;7.67;6.60;;;23.00;99.90;;;;;;5075153;28;20961;-77
2021/07/19 10:54:49;;;;;;;8.63;6.40;;;23.00;99.90;;;;;;5075394;28;20455;-75
2021/07/19 10:57:17;;;;;;;6.73;6.03;;;23.10;99.90;;;;;;5076639;28;20470;-75
2021/07/19 10:59:45;;;;;;;8.23;6.90;;;23.10;99.90;;;;;;5076664;28;20535;-76
2021/07/19 11:02:27;;;;;;;7.20;6.00;;;23.10;99.90;;;;;;5076441;28;20448;-76
2021/07/19 11:04:54;;;;;;;8.03;6.70;;;23.10;99.90;;;;;;5076190;28;20476;-76
2021/07/19 11:07:24;;;;;;;11.50;6.30;;;23.10;99.90;;;;;;5076158;28;20445;-76
2021/07/19 11:09:51;;;;;;;7.73;6.70;;;23.20;99.90;;;;;;5074993;28;20491;-77
2021/07/19 11:12:18;;;;;;;10.07;6.87;;;23.20;99.90;;;;;;5074814;28;20456;-78
2021/07/19 11:14:47;;;;;;;8.00;6.63;;;23.20;99.90;;;;;;5074855;28;20448;-76
2021/07/19 11:17:15;;;;;;;5.90;5.37;;;23.20;99.90;;;;;;5074607;28;20709;-78
2021/07/19 11:19:42;;;;;;;8.53;7.40;;;23.20;99.90;;;;;;5074742;28;20463;-79
2021/07/19 11:22:13;;;;;;;7.30;6.60;;;23.20;99.90;;;;;;5074690;28;20445;-77
2021/07/19 11:24:44;;;;;;;6.13;5.53;;;23.30;99.90;;;;;;5074422;28;20441;-77
2021/07/19 11:27:12;;;;;;;11.57;6.60;;;23.30;99.90;;;;;;5066767;28;20440;-80
2021/07/19 11:29:41;;;;;;;7.07;6.17;;;23.30;99.90;;;;;;5074732;28;20558;-77
2021/07/19 11:32:17;;;;;;;8.30;5.47;;;23.40;99.90;;;;;;5073757;28;20814;-74
2021/07/19 11:34:44;;;;;;;7.70;6.90;;;23.40;99.90;;;;;;5074471;28;20765;-76
2021/07/19 11:37:11;;;;;;;7.53;6.63;;;23.40;99.90;;;;;;5074601;28;20440;-79
2021/07/19 11:39:53;;;;;;;11.60;7.47;;;23.40;99.90;;;;;;5074287;28;20507;-78
2021/07/19 11:42:30;;;;;;;8.37;6.13;;;23.40;99.90;;;;;;5073719;28;20480;-79
2021/07/19 11:45:03;;;;;;;7.40;6.20;;;23.50;99.90;;;;;;5074422;28;20444;-79
2021/07/19 11:47:31;;;;;;;6.33;5.73;;;23.60;99.90;;;;;;5073968;28;20470;-78
2021/07/19 11:50:02;;;;;;;6.43;5.70;;;23.60;99.90;;;;;;5074337;28;20441;-78
2021/07/19 11:52:29;;;;;;;8.37;6.93;;;23.60;99.90;;;;;;5073845;28;20510;-76
2021/07/19 11:54:58;;;;;;;7.13;6.43;;;23.70;99.90;;;;;;5074889;28;20441;-76
2021/07/19 11:57:25;;;;;;;6.90;5.97;;;23.70;99.90;;;;;;5074585;28;20449;-76
2021/07/19 11:59:52;;;;;;;6.30;5.70;;;23.70;99.90;;;;;;5075076;28;20448;-76
2021/07/19 12:02:27;;;;;;;7.77;6.97;;;23.80;99.90;;;;;;5072567;28;20436;-78
2021/07/19 12:04:54;;;;;;;9.40;6.57;;;23.70;99.90;;;;;;5063097;28;20942;-77
2021/07/19 12:07:25;;;;;;;8.50;6.33;;;23.70;99.90;;;;;;5061269;28;20442;-76
2021/07/19 12:10:00;;;;;;;7.53;6.83;;;23.70;99.90;;;;;;5060970;28;20449;-79
2021/07/19 12:12:27;;;;;;;8.80;7.30;;;23.70;99.90;;;;;;5063067;28;20651;-76
2021/07/19 12:14:57;;;;;;;8.37;7.47;;;23.80;99.90;;;;;;5063274;28;20794;-76
2021/07/19 12:17:28;;;;;;;7.70;6.90;;;23.70;99.90;;;;;;5064178;28;20499;-76
2021/07/19 12:19:55;;;;;;;8.20;6.40;;;23.80;99.90;;;;;;5060022;28;20485;-76
2021/07/19 12:22:22;;;;;;;8.50;7.03;;;23.80;99.90;;;;;;5067869;28;20436;-79
2021/07/19 12:24:52;;;;;;;8.07;6.70;;;23.80;99.90;;;;;;5065997;28;20456;-78
2021/07/19 12:27:21;;;;;;;7.90;5.80;;;23.80;99.90;;;;;;5073305;28;20449;-80
2021/07/19 12:29:50;;;;;;;7.90;6.03;;;23.70;99.90;;;;;;5065386;28;20449;-78
2021/07/19 12:32:17;;;;;;;8.03;6.87;;;23.70;99.90;;;;;;5063862;28;20460;-79
2021/07/19 12:34:45;;;;;;;8.07;6.00;;;23.70;99.90;;;;;;5066170;28;20456;-81
2021/07/19 12:37:13;;;;;;;7.63;6.70;;;23.70;99.90;;;;;;5070144;28;20464;-79
2021/07/19 12:39:42;;;;;;;8.20;6.13;;;23.70;99.90;;;;;;5071204;28;20484;-80
2021/07/19 12:42:11;;;;;;;6.97;6.37;;;23.70;99.90;;;;;;5059341;28;20487;-77
2021/07/19 12:44:39;;;;;;;7.97;6.00;;;23.70;99.90;;;;;;5055898;28;20466;-75
2021/07/19 12:47:06;;;;;;;6.40;5.63;;;23.70;99.90;;;;;;5074150;28;20445;-76
2021/07/19 12:49:35;;;;;;;8.87;6.07;;;23.70;99.90;;;;;;5074536;28;20452;-73
2021/07/19 12:52:06;;;;;;;6.30;5.73;;;23.70;99.90;;;;;;5074726;28;20523;-76